sensor_id;sensor_type;location;lat;lon;timestamp;P1;durP1;ratioP1;P2;durP2;ratioP2
67640;SDS011;54434;50.096;20.082;2023-05-25T00:01:29;22.20;;;14.70;;
67640;SDS011;54434;50.096;20.082;2023-05-25T00:04:07;24.00;;;14.50;;
67640;SDS011;54434;50.096;20.082;2023-05-25T00:06:49;25.50;;;14.80;;
67640;SDS011;54434;50.096;20.082;2023-05-25T00:09:26;25.60;;;15.20;;
67640;SDS011;54434;50.096;20.082;2023-05-25T00:12:03;24.60;;;14.40;;
67640;SDS011;54434;50.096;20.082;2023-05-25T00:14:40;26.40;;;14.80;;
67640;SDS011;54434;50.096;20.082;2023-05-25T00:17:17;26.40;;;15.10;;
67640;SDS011;54434;50.096;20.082;2023-05-25T00:19:54;25.50;;;14.80;;
67640;SDS011;54434;50.096;20.082;2023-05-25T00:22:35;24.40;;;15.10;;
67640;SDS011;54434;50.096;20.082;2023-05-25T00:25:12;27.30;;;14.90;;
67640;SDS011;54434;50.096;20.082;2023-05-25T00:27:49;26.30;;;15.60;;
67640;SDS011;54434;50.096;20.082;2023-05-25T00:30:25;24.50;;;14.40;;
67640;SDS011;54434;50.096;20.082;2023-05-25T00:33:05;26.30;;;14.70;;
67640;SDS011;54434;50.096;20.082;2023-05-25T00:35:44;28.90;;;15.00;;
67640;SDS011;54434;50.096;20.082;2023-05-25T00:38:20;24.90;;;14.70;;
67640;SDS011;54434;50.096;20.082;2023-05-25T00:40:58;25.80;;;15.30;;
67640;SDS011;54434;50.096;20.082;2023-05-25T00:43:34;26.90;;;15.30;;
67640;SDS011;54434;50.096;20.082;2023-05-25T00:46:11;28.00;;;15.80;;
67640;SDS011;54434;50.096;20.082;2023-05-25T00:48:53;29.60;;;16.10;;
67640;SDS011;54434;50.096;20.082;2023-05-25T00:51:31;30.30;;;15.50;;
67640;SDS011;54434;50.096;20.082;2023-05-25T00:54:08;29.10;;;15.10;;
67640;SDS011;54434;50.096;20.082;2023-05-25T00:56:52;27.70;;;14.90;;
67640;SDS011;54434;50.096;20.082;2023-05-25T00:59:36;27.60;;;14.60;;
67640;SDS011;54434;50.096;20.082;2023-05-25T01:02:17;31.20;;;14.90;;
67640;SDS011;54434;50.096;20.082;2023-05-25T01:07:36;28.90;;;14.80;;
67640;SDS011;54434;50.096;20.082;2023-05-25T01:10:17;29.70;;;15.30;;
67640;SDS011;54434;50.096;20.082;2023-05-25T01:12:55;28.10;;;15.00;;
67640;SDS011;54434;50.096;20.082;2023-05-25T01:15:34;28.10;;;16.40;;
67640;SDS011;54434;50.096;20.082;2023-05-25T01:18:13;31.10;;;15.70;;
67640;SDS011;54434;50.096;20.082;2023-05-25T01:20:58;31.20;;;16.70;;
67640;SDS011;54434;50.096;20.082;2023-05-25T01:23:55;33.20;;;17.30;;
67640;SDS011;54434;50.096;20.082;2023-05-25T01:26:43;35.20;;;16.60;;
67640;SDS011;54434;50.096;20.082;2023-05-25T01:29:30;34.30;;;17.40;;
67640;SDS011;54434;50.096;20.082;2023-05-25T01:32:09;30.90;;;17.40;;
67640;SDS011;54434;50.096;20.082;2023-05-25T01:34:47;32.50;;;16.80;;
67640;SDS011;54434;50.096;20.082;2023-05-25T01:37:24;29.30;;;17.70;;
67640;SDS011;54434;50.096;20.082;2023-05-25T01:40:04;31.10;;;17.10;;
67640;SDS011;54434;50.096;20.082;2023-05-25T01:42:42;33.70;;;17.30;;
67640;SDS011;54434;50.096;20.082;2023-05-25T01:45:19;33.60;;;17.70;;
67640;SDS011;54434;50.096;20.082;2023-05-25T01:48:03;32.40;;;17.40;;
67640;SDS011;54434;50.096;20.082;2023-05-25T01:50:56;31.70;;;16.90;;
67640;SDS011;54434;50.096;20.082;2023-05-25T01:53:39;29.60;;;16.50;;
67640;SDS011;54434;50.096;20.082;2023-05-25T01:56:23;33.30;;;18.10;;
67640;SDS011;54434;50.096;20.082;2023-05-25T01:59:02;34.50;;;18.00;;
67640;SDS011;54434;50.096;20.082;2023-05-25T02:01:42;32.20;;;16.70;;
67640;SDS011;54434;50.096;20.082;2023-05-25T02:04:21;29.30;;;15.70;;
67640;SDS011;54434;50.096;20.082;2023-05-25T02:06:59;27.90;;;16.40;;
67640;SDS011;54434;50.096;20.082;2023-05-25T02:09:36;29.40;;;15.80;;
67640;SDS011;54434;50.096;20.082;2023-05-25T02:12:13;26.20;;;15.60;;
67640;SDS011;54434;50.096;20.082;2023-05-25T02:14:50;30.00;;;15.10;;
67640;SDS011;54434;50.096;20.082;2023-05-25T02:17:26;33.20;;;15.80;;
67640;SDS011;54434;50.096;20.082;2023-05-25T02:20:03;32.60;;;15.20;;
67640;SDS011;54434;50.096;20.082;2023-05-25T02:22:41;31.40;;;15.40;;
67640;SDS011;54434;50.096;20.082;2023-05-25T02:25:18;32.50;;;15.20;;
67640;SDS011;54434;50.096;20.082;2023-05-25T02:27:55;29.80;;;14.20;;
67640;SDS011;54434;50.096;20.082;2023-05-25T02:30:32;28.80;;;15.40;;
67640;SDS011;54434;50.096;20.082;2023-05-25T02:33:09;34.40;;;15.50;;
67640;SDS011;54434;50.096;20.082;2023-05-25T02:35:46;29.80;;;15.40;;
67640;SDS011;54434;50.096;20.082;2023-05-25T02:38:23;29.00;;;14.50;;
67640;SDS011;54434;50.096;20.082;2023-05-25T02:41:00;25.70;;;14.30;;
67640;SDS011;54434;50.096;20.082;2023-05-25T02:43:36;29.60;;;14.30;;
67640;SDS011;54434;50.096;20.082;2023-05-25T02:46:13;27.70;;;14.90;;
67640;SDS011;54434;50.096;20.082;2023-05-25T02:48:50;28.40;;;14.20;;
67640;SDS011;54434;50.096;20.082;2023-05-25T02:51:28;29.70;;;15.90;;
67640;SDS011;54434;50.096;20.082;2023-05-25T02:54:05;30.10;;;14.40;;
67640;SDS011;54434;50.096;20.082;2023-05-25T02:56:41;28.40;;;14.80;;
67640;SDS011;54434;50.096;20.082;2023-05-25T02:59:20;26.60;;;13.80;;
67640;SDS011;54434;50.096;20.082;2023-05-25T03:01:57;31.80;;;15.10;;
67640;SDS011;54434;50.096;20.082;2023-05-25T03:04:33;27.20;;;13.80;;
67640;SDS011;54434;50.096;20.082;2023-05-25T03:07:11;30.20;;;14.60;;
67640;SDS011;54434;50.096;20.082;2023-05-25T03:09:48;31.80;;;14.50;;
67640;SDS011;54434;50.096;20.082;2023-05-25T03:12:24;26.30;;;14.10;;
67640;SDS011;54434;50.096;20.082;2023-05-25T03:15:01;27.80;;;14.10;;
67640;SDS011;54434;50.096;20.082;2023-05-25T03:17:38;27.50;;;14.40;;
67640;SDS011;54434;50.096;20.082;2023-05-25T03:20:16;29.10;;;14.70;;
67640;SDS011;54434;50.096;20.082;2023-05-25T03:22:55;26.20;;;13.30;;
67640;SDS011;54434;50.096;20.082;2023-05-25T03:25:31;29.40;;;14.30;;
67640;SDS011;54434;50.096;20.082;2023-05-25T03:28:08;28.70;;;13.90;;
67640;SDS011;54434;50.096;20.082;2023-05-25T03:30:44;28.00;;;14.20;;
67640;SDS011;54434;50.096;20.082;2023-05-25T03:33:21;26.00;;;13.60;;
67640;SDS011;54434;50.096;20.082;2023-05-25T03:35:58;28.80;;;14.30;;
67640;SDS011;54434;50.096;20.082;2023-05-25T03:38:35;29.10;;;14.00;;
67640;SDS011;54434;50.096;20.082;2023-05-25T03:41:11;40.60;;;22.10;;
67640;SDS011;54434;50.096;20.082;2023-05-25T03:43:48;27.40;;;14.40;;
67640;SDS011;54434;50.096;20.082;2023-05-25T03:46:25;31.40;;;13.90;;
67640;SDS011;54434;50.096;20.082;2023-05-25T03:49:02;26.10;;;14.00;;
67640;SDS011;54434;50.096;20.082;2023-05-25T03:51:40;27.90;;;14.40;;
67640;SDS011;54434;50.096;20.082;2023-05-25T03:54:17;30.40;;;13.70;;
67640;SDS011;54434;50.096;20.082;2023-05-25T03:56:54;27.20;;;14.70;;
67640;SDS011;54434;50.096;20.082;2023-05-25T03:59:31;29.00;;;14.00;;
67640;SDS011;54434;50.096;20.082;2023-05-25T04:02:08;26.60;;;13.70;;
67640;SDS011;54434;50.096;20.082;2023-05-25T04:04:45;24.60;;;13.40;;
67640;SDS011;54434;50.096;20.082;2023-05-25T04:07:23;30.00;;;14.80;;
67640;SDS011;54434;50.096;20.082;2023-05-25T04:10:04;26.90;;;13.70;;
67640;SDS011;54434;50.096;20.082;2023-05-25T04:12:41;25.30;;;13.40;;
67640;SDS011;54434;50.096;20.082;2023-05-25T04:15:18;31.10;;;14.50;;
67640;SDS011;54434;50.096;20.082;2023-05-25T04:18:11;25.60;;;13.60;;
67640;SDS011;54434;50.096;20.082;2023-05-25T04:20:49;31.10;;;14.50;;
67640;SDS011;54434;50.096;20.082;2023-05-25T04:23:28;155.30;;;60.90;;
67640;SDS011;54434;50.096;20.082;2023-05-25T04:26:07;38.40;;;17.00;;
67640;SDS011;54434;50.096;20.082;2023-05-25T04:28:45;31.10;;;15.80;;
67640;SDS011;54434;50.096;20.082;2023-05-25T04:32:06;32.40;;;14.10;;
67640;SDS011;54434;50.096;20.082;2023-05-25T04:34:52;32.10;;;13.60;;
67640;SDS011;54434;50.096;20.082;2023-05-25T04:37:31;32.20;;;15.40;;
67640;SDS011;54434;50.096;20.082;2023-05-25T04:40:11;30.50;;;14.60;;
67640;SDS011;54434;50.096;20.082;2023-05-25T04:42:48;28.20;;;14.30;;
67640;SDS011;54434;50.096;20.082;2023-05-25T04:45:26;30.80;;;14.50;;
67640;SDS011;54434;50.096;20.082;2023-05-25T04:48:07;27.90;;;14.20;;
67640;SDS011;54434;50.096;20.082;2023-05-25T04:50:43;29.90;;;15.20;;
67640;SDS011;54434;50.096;20.082;2023-05-25T04:53:20;31.20;;;15.70;;
67640;SDS011;54434;50.096;20.082;2023-05-25T04:55:57;31.60;;;15.20;;
67640;SDS011;54434;50.096;20.082;2023-05-25T04:58:34;36.90;;;16.50;;
67640;SDS011;54434;50.096;20.082;2023-05-25T05:01:11;32.00;;;14.90;;
67640;SDS011;54434;50.096;20.082;2023-05-25T05:03:47;29.80;;;15.10;;
67640;SDS011;54434;50.096;20.082;2023-05-25T05:06:24;31.40;;;15.20;;
67640;SDS011;54434;50.096;20.082;2023-05-25T05:09:01;33.20;;;15.80;;
67640;SDS011;54434;50.096;20.082;2023-05-25T05:11:38;31.60;;;16.50;;
67640;SDS011;54434;50.096;20.082;2023-05-25T05:14:14;36.90;;;15.80;;
67640;SDS011;54434;50.096;20.082;2023-05-25T05:16:52;36.10;;;15.70;;
67640;SDS011;54434;50.096;20.082;2023-05-25T05:19:29;31.90;;;16.00;;
67640;SDS011;54434;50.096;20.082;2023-05-25T05:22:07;34.10;;;16.50;;
67640;SDS011;54434;50.096;20.082;2023-05-25T05:24:45;35.20;;;16.10;;
67640;SDS011;54434;50.096;20.082;2023-05-25T05:27:27;35.00;;;17.20;;
67640;SDS011;54434;50.096;20.082;2023-05-25T05:30:10;33.70;;;17.40;;
67640;SDS011;54434;50.096;20.082;2023-05-25T05:32:47;31.00;;;17.20;;
67640;SDS011;54434;50.096;20.082;2023-05-25T05:35:25;34.50;;;17.50;;
67640;SDS011;54434;50.096;20.082;2023-05-25T05:38:11;34.90;;;17.70;;
67640;SDS011;54434;50.096;20.082;2023-05-25T05:40:48;35.80;;;17.70;;
67640;SDS011;54434;50.096;20.082;2023-05-25T05:43:27;37.10;;;17.20;;
67640;SDS011;54434;50.096;20.082;2023-05-25T05:46:04;35.80;;;17.70;;
67640;SDS011;54434;50.096;20.082;2023-05-25T05:48:40;34.30;;;17.70;;
67640;SDS011;54434;50.096;20.082;2023-05-25T05:51:17;36.60;;;19.50;;
67640;SDS011;54434;50.096;20.082;2023-05-25T05:53:55;35.30;;;18.60;;
67640;SDS011;54434;50.096;20.082;2023-05-25T05:56:31;35.60;;;17.20;;
67640;SDS011;54434;50.096;20.082;2023-05-25T05:59:09;39.50;;;19.20;;
67640;SDS011;54434;50.096;20.082;2023-05-25T06:01:46;33.80;;;18.20;;
67640;SDS011;54434;50.096;20.082;2023-05-25T06:04:23;37.30;;;19.00;;
67640;SDS011;54434;50.096;20.082;2023-05-25T06:07:02;37.90;;;19.70;;
67640;SDS011;54434;50.096;20.082;2023-05-25T06:09:40;37.30;;;19.00;;
67640;SDS011;54434;50.096;20.082;2023-05-25T06:12:16;48.60;;;20.30;;
67640;SDS011;54434;50.096;20.082;2023-05-25T06:14:53;40.80;;;20.10;;
67640;SDS011;54434;50.096;20.082;2023-05-25T06:17:30;39.30;;;18.70;;
67640;SDS011;54434;50.096;20.082;2023-05-25T06:20:11;36.20;;;19.20;;
67640;SDS011;54434;50.096;20.082;2023-05-25T06:22:47;41.60;;;19.00;;
67640;SDS011;54434;50.096;20.082;2023-05-25T06:25:24;40.60;;;20.00;;
67640;SDS011;54434;50.096;20.082;2023-05-25T06:28:01;40.20;;;19.50;;
67640;SDS011;54434;50.096;20.082;2023-05-25T06:30:37;45.70;;;20.90;;
67640;SDS011;54434;50.096;20.082;2023-05-25T06:33:14;35.50;;;19.30;;
67640;SDS011;54434;50.096;20.082;2023-05-25T06:35:51;35.40;;;19.60;;
67640;SDS011;54434;50.096;20.082;2023-05-25T06:38:32;33.80;;;19.60;;
67640;SDS011;54434;50.096;20.082;2023-05-25T06:41:09;34.00;;;19.20;;
67640;SDS011;54434;50.096;20.082;2023-05-25T06:43:48;32.50;;;18.10;;
67640;SDS011;54434;50.096;20.082;2023-05-25T06:46:34;32.40;;;17.80;;
67640;SDS011;54434;50.096;20.082;2023-05-25T06:49:12;37.40;;;18.40;;
67640;SDS011;54434;50.096;20.082;2023-05-25T06:51:48;35.80;;;18.90;;
67640;SDS011;54434;50.096;20.082;2023-05-25T06:54:25;32.80;;;18.80;;
67640;SDS011;54434;50.096;20.082;2023-05-25T06:57:01;39.40;;;19.40;;
67640;SDS011;54434;50.096;20.082;2023-05-25T06:59:38;35.20;;;19.40;;
67640;SDS011;54434;50.096;20.082;2023-05-25T07:02:15;32.50;;;17.60;;
67640;SDS011;54434;50.096;20.082;2023-05-25T07:04:53;35.30;;;18.30;;
67640;SDS011;54434;50.096;20.082;2023-05-25T07:07:29;36.10;;;19.00;;
67640;SDS011;54434;50.096;20.082;2023-05-25T07:10:09;47.20;;;21.50;;
67640;SDS011;54434;50.096;20.082;2023-05-25T07:12:45;40.90;;;20.50;;
67640;SDS011;54434;50.096;20.082;2023-05-25T07:15:22;39.50;;;19.30;;
67640;SDS011;54434;50.096;20.082;2023-05-25T07:17:58;41.20;;;22.20;;
67640;SDS011;54434;50.096;20.082;2023-05-25T07:20:34;38.70;;;22.00;;
67640;SDS011;54434;50.096;20.082;2023-05-25T07:23:13;41.10;;;22.20;;
67640;SDS011;54434;50.096;20.082;2023-05-25T07:25:49;38.60;;;19.90;;
67640;SDS011;54434;50.096;20.082;2023-05-25T07:28:26;51.10;;;22.00;;
67640;SDS011;54434;50.096;20.082;2023-05-25T07:31:02;52.40;;;22.70;;
67640;SDS011;54434;50.096;20.082;2023-05-25T07:33:39;55.80;;;23.40;;
67640;SDS011;54434;50.096;20.082;2023-05-25T07:36:15;49.40;;;23.60;;
67640;SDS011;54434;50.096;20.082;2023-05-25T07:38:52;41.30;;;22.00;;
67640;SDS011;54434;50.096;20.082;2023-05-25T07:41:29;44.20;;;22.40;;
67640;SDS011;54434;50.096;20.082;2023-05-25T07:44:06;43.50;;;21.90;;
67640;SDS011;54434;50.096;20.082;2023-05-25T07:46:43;46.60;;;21.90;;
67640;SDS011;54434;50.096;20.082;2023-05-25T07:49:19;48.50;;;21.40;;
67640;SDS011;54434;50.096;20.082;2023-05-25T16:10:31;20.80;;;13.80;;
67640;SDS011;54434;50.096;20.082;2023-05-25T16:13:08;23.20;;;14.30;;
67640;SDS011;54434;50.096;20.082;2023-05-25T16:15:45;22.00;;;14.20;;
67640;SDS011;54434;50.096;20.082;2023-05-25T16:18:21;21.90;;;14.70;;
67640;SDS011;54434;50.096;20.082;2023-05-25T16:20:58;27.40;;;17.10;;
67640;SDS011;54434;50.096;20.082;2023-05-25T16:23:34;36.30;;;21.60;;
67640;SDS011;54434;50.096;20.082;2023-05-25T16:26:12;27.50;;;16.70;;
67640;SDS011;54434;50.096;20.082;2023-05-25T16:28:49;29.00;;;16.40;;
67640;SDS011;54434;50.096;20.082;2023-05-25T16:31:26;26.00;;;16.60;;
67640;SDS011;54434;50.096;20.082;2023-05-25T16:34:03;22.80;;;16.10;;
67640;SDS011;54434;50.096;20.082;2023-05-25T16:36:39;31.70;;;15.20;;
67640;SDS011;54434;50.096;20.082;2023-05-25T16:39:16;27.90;;;16.00;;
67640;SDS011;54434;50.096;20.082;2023-05-25T16:41:52;24.50;;;16.00;;
67640;SDS011;54434;50.096;20.082;2023-05-25T16:44:29;25.70;;;16.70;;
67640;SDS011;54434;50.096;20.082;2023-05-25T16:47:07;26.40;;;16.80;;
67640;SDS011;54434;50.096;20.082;2023-05-25T16:49:44;44.40;;;26.70;;
67640;SDS011;54434;50.096;20.082;2023-05-25T16:52:22;59.60;;;38.60;;
67640;SDS011;54434;50.096;20.082;2023-05-25T16:54:59;32.90;;;22.20;;
67640;SDS011;54434;50.096;20.082;2023-05-25T16:57:35;27.70;;;19.30;;
67640;SDS011;54434;50.096;20.082;2023-05-25T17:00:15;30.80;;;20.10;;
67640;SDS011;54434;50.096;20.082;2023-05-25T17:02:52;36.30;;;21.60;;
67640;SDS011;54434;50.096;20.082;2023-05-25T17:05:30;38.50;;;22.80;;
67640;SDS011;54434;50.096;20.082;2023-05-25T17:08:07;32.70;;;22.40;;
67640;SDS011;54434;50.096;20.082;2023-05-25T17:10:47;36.20;;;23.10;;
67640;SDS011;54434;50.096;20.082;2023-05-25T17:13:24;35.80;;;23.40;;
67640;SDS011;54434;50.096;20.082;2023-05-25T17:16:01;36.80;;;23.20;;
67640;SDS011;54434;50.096;20.082;2023-05-25T17:18:37;39.90;;;23.90;;
67640;SDS011;54434;50.096;20.082;2023-05-25T17:21:15;37.00;;;22.60;;
67640;SDS011;54434;50.096;20.082;2023-05-25T17:23:52;40.20;;;23.70;;
67640;SDS011;54434;50.096;20.082;2023-05-25T17:26:28;36.50;;;24.20;;
67640;SDS011;54434;50.096;20.082;2023-05-25T17:29:05;42.60;;;25.40;;
67640;SDS011;54434;50.096;20.082;2023-05-25T17:31:42;42.10;;;25.40;;
67640;SDS011;54434;50.096;20.082;2023-05-25T17:34:21;39.90;;;25.40;;
67640;SDS011;54434;50.096;20.082;2023-05-25T17:36:58;43.20;;;25.20;;
67640;SDS011;54434;50.096;20.082;2023-05-25T17:39:34;40.10;;;24.30;;
67640;SDS011;54434;50.096;20.082;2023-05-25T17:42:11;38.10;;;24.20;;
67640;SDS011;54434;50.096;20.082;2023-05-25T17:44:49;38.70;;;24.80;;
67640;SDS011;54434;50.096;20.082;2023-05-25T17:47:26;41.90;;;24.50;;
67640;SDS011;54434;50.096;20.082;2023-05-25T17:50:05;42.70;;;24.50;;
67640;SDS011;54434;50.096;20.082;2023-05-25T17:52:42;39.40;;;24.00;;
67640;SDS011;54434;50.096;20.082;2023-05-25T17:55:19;39.10;;;25.30;;
67640;SDS011;54434;50.096;20.082;2023-05-25T17:57:57;42.90;;;25.60;;
67640;SDS011;54434;50.096;20.082;2023-05-25T18:00:34;40.10;;;24.40;;
67640;SDS011;54434;50.096;20.082;2023-05-25T18:03:11;47.40;;;27.00;;
67640;SDS011;54434;50.096;20.082;2023-05-25T18:05:49;44.80;;;26.40;;
67640;SDS011;54434;50.096;20.082;2023-05-25T18:08:27;40.70;;;25.20;;
67640;SDS011;54434;50.096;20.082;2023-05-25T18:11:04;50.10;;;29.60;;
67640;SDS011;54434;50.096;20.082;2023-05-25T18:13:41;44.40;;;26.00;;
67640;SDS011;54434;50.096;20.082;2023-05-25T18:16:18;39.50;;;25.20;;
67640;SDS011;54434;50.096;20.082;2023-05-25T18:18:57;43.30;;;25.80;;
67640;SDS011;54434;50.096;20.082;2023-05-25T18:21:33;39.30;;;24.90;;
67640;SDS011;54434;50.096;20.082;2023-05-25T18:24:10;40.10;;;26.10;;
67640;SDS011;54434;50.096;20.082;2023-05-25T18:26:47;44.20;;;27.10;;
67640;SDS011;54434;50.096;20.082;2023-05-25T18:29:24;45.90;;;26.30;;
67640;SDS011;54434;50.096;20.082;2023-05-25T18:32:02;49.20;;;25.20;;
67640;SDS011;54434;50.096;20.082;2023-05-25T18:34:40;41.60;;;26.30;;
67640;SDS011;54434;50.096;20.082;2023-05-25T18:37:17;44.30;;;26.20;;
67640;SDS011;54434;50.096;20.082;2023-05-25T18:39:56;44.90;;;25.90;;
67640;SDS011;54434;50.096;20.082;2023-05-25T18:42:34;45.30;;;26.70;;
67640;SDS011;54434;50.096;20.082;2023-05-25T18:45:12;46.60;;;27.40;;
67640;SDS011;54434;50.096;20.082;2023-05-25T18:47:49;44.50;;;27.50;;
67640;SDS011;54434;50.096;20.082;2023-05-25T18:50:26;44.60;;;26.50;;
67640;SDS011;54434;50.096;20.082;2023-05-25T18:53:04;47.70;;;27.20;;
67640;SDS011;54434;50.096;20.082;2023-05-25T18:55:44;45.00;;;28.00;;
67640;SDS011;54434;50.096;20.082;2023-05-25T18:58:21;67.40;;;36.20;;
67640;SDS011;54434;50.096;20.082;2023-05-25T19:00:58;48.10;;;28.60;;
67640;SDS011;54434;50.096;20.082;2023-05-25T19:03:36;52.60;;;29.50;;
67640;SDS011;54434;50.096;20.082;2023-05-25T19:06:13;46.00;;;27.10;;
67640;SDS011;54434;50.096;20.082;2023-05-25T19:08:51;46.50;;;27.60;;
67640;SDS011;54434;50.096;20.082;2023-05-25T19:11:27;52.20;;;29.30;;
67640;SDS011;54434;50.096;20.082;2023-05-25T19:14:04;47.20;;;28.20;;
67640;SDS011;54434;50.096;20.082;2023-05-25T19:16:42;50.20;;;29.30;;
67640;SDS011;54434;50.096;20.082;2023-05-25T19:19:23;47.90;;;27.90;;
67640;SDS011;54434;50.096;20.082;2023-05-25T19:22:00;48.70;;;28.30;;
67640;SDS011;54434;50.096;20.082;2023-05-25T19:24:38;50.60;;;28.30;;
67640;SDS011;54434;50.096;20.082;2023-05-25T19:27:21;47.60;;;27.90;;
67640;SDS011;54434;50.096;20.082;2023-05-25T19:29:59;50.20;;;29.60;;
67640;SDS011;54434;50.096;20.082;2023-05-25T19:32:37;50.20;;;28.30;;
67640;SDS011;54434;50.096;20.082;2023-05-25T19:35:15;52.50;;;29.40;;
67640;SDS011;54434;50.096;20.082;2023-05-25T19:37:52;53.10;;;29.30;;
67640;SDS011;54434;50.096;20.082;2023-05-25T19:40:32;54.70;;;29.80;;
67640;SDS011;54434;50.096;20.082;2023-05-25T19:43:10;55.90;;;28.70;;
67640;SDS011;54434;50.096;20.082;2023-05-25T19:45:47;56.90;;;29.90;;
67640;SDS011;54434;50.096;20.082;2023-05-25T19:48:25;98.40;;;57.20;;
67640;SDS011;54434;50.096;20.082;2023-05-25T19:51:04;56.10;;;31.80;;
67640;SDS011;54434;50.096;20.082;2023-05-25T19:53:41;50.10;;;28.20;;
67640;SDS011;54434;50.096;20.082;2023-05-25T19:56:20;50.90;;;27.60;;
67640;SDS011;54434;50.096;20.082;2023-05-25T19:58:58;53.90;;;29.80;;
67640;SDS011;54434;50.096;20.082;2023-05-25T20:01:35;50.10;;;28.70;;
67640;SDS011;54434;50.096;20.082;2023-05-25T20:04:13;52.40;;;29.30;;
67640;SDS011;54434;50.096;20.082;2023-05-25T20:06:50;50.30;;;28.10;;
67640;SDS011;54434;50.096;20.082;2023-05-25T20:09:26;48.20;;;29.10;;
67640;SDS011;54434;50.096;20.082;2023-05-25T20:12:04;47.30;;;28.10;;
67640;SDS011;54434;50.096;20.082;2023-05-25T20:14:42;50.80;;;28.60;;
67640;SDS011;54434;50.096;20.082;2023-05-25T20:17:19;53.10;;;28.30;;
67640;SDS011;54434;50.096;20.082;2023-05-25T20:19:56;47.10;;;27.70;;
67640;SDS011;54434;50.096;20.082;2023-05-25T20:22:34;49.50;;;27.60;;
67640;SDS011;54434;50.096;20.082;2023-05-25T20:25:12;43.40;;;25.80;;
67640;SDS011;54434;50.096;20.082;2023-05-25T20:27:49;48.90;;;27.50;;
67640;SDS011;54434;50.096;20.082;2023-05-25T20:30:26;46.70;;;27.30;;
67640;SDS011;54434;50.096;20.082;2023-05-25T20:33:03;42.40;;;26.90;;
67640;SDS011;54434;50.096;20.082;2023-05-25T20:35:40;41.90;;;26.40;;
67640;SDS011;54434;50.096;20.082;2023-05-25T20:38:17;42.00;;;25.60;;
67640;SDS011;54434;50.096;20.082;2023-05-25T20:40:54;42.50;;;24.90;;
67640;SDS011;54434;50.096;20.082;2023-05-25T20:43:30;39.20;;;23.90;;
67640;SDS011;54434;50.096;20.082;2023-05-25T20:46:08;45.70;;;27.50;;
67640;SDS011;54434;50.096;20.082;2023-05-25T20:48:46;44.50;;;25.00;;
67640;SDS011;54434;50.096;20.082;2023-05-25T20:51:24;39.30;;;26.30;;
67640;SDS011;54434;50.096;20.082;2023-05-25T20:54:01;38.30;;;25.40;;
67640;SDS011;54434;50.096;20.082;2023-05-25T20:56:38;39.20;;;25.50;;
67640;SDS011;54434;50.096;20.082;2023-05-25T20:59:15;44.10;;;25.60;;
67640;SDS011;54434;50.096;20.082;2023-05-25T21:01:51;37.80;;;25.10;;
67640;SDS011;54434;50.096;20.082;2023-05-25T21:04:29;36.20;;;24.50;;
67640;SDS011;54434;50.096;20.082;2023-05-25T21:07:06;37.20;;;24.90;;
67640;SDS011;54434;50.096;20.082;2023-05-25T21:09:43;40.10;;;23.70;;
67640;SDS011;54434;50.096;20.082;2023-05-25T21:12:20;41.20;;;25.00;;
67640;SDS011;54434;50.096;20.082;2023-05-25T21:14:57;39.70;;;25.00;;
67640;SDS011;54434;50.096;20.082;2023-05-25T21:17:33;41.80;;;26.50;;
67640;SDS011;54434;50.096;20.082;2023-05-25T21:20:11;39.10;;;24.30;;
67640;SDS011;54434;50.096;20.082;2023-05-25T21:22:48;38.90;;;24.80;;
67640;SDS011;54434;50.096;20.082;2023-05-25T21:25:24;38.40;;;24.50;;
67640;SDS011;54434;50.096;20.082;2023-05-25T21:28:01;40.90;;;25.60;;
67640;SDS011;54434;50.096;20.082;2023-05-25T21:30:39;39.80;;;26.20;;
67640;SDS011;54434;50.096;20.082;2023-05-25T21:33:15;38.70;;;25.70;;
67640;SDS011;54434;50.096;20.082;2023-05-25T21:35:52;46.10;;;26.80;;
67640;SDS011;54434;50.096;20.082;2023-05-25T21:38:28;42.20;;;27.20;;
67640;SDS011;54434;50.096;20.082;2023-05-25T21:41:05;42.20;;;26.40;;
67640;SDS011;54434;50.096;20.082;2023-05-25T21:43:42;40.10;;;26.30;;
67640;SDS011;54434;50.096;20.082;2023-05-25T21:46:19;42.70;;;26.00;;
67640;SDS011;54434;50.096;20.082;2023-05-25T21:48:55;42.70;;;26.50;;
67640;SDS011;54434;50.096;20.082;2023-05-25T21:51:32;50.50;;;27.00;;
67640;SDS011;54434;50.096;20.082;2023-05-25T21:54:09;47.60;;;27.50;;
67640;SDS011;54434;50.096;20.082;2023-05-25T21:56:45;45.40;;;27.50;;
67640;SDS011;54434;50.096;20.082;2023-05-25T21:59:22;43.90;;;27.50;;
67640;SDS011;54434;50.096;20.082;2023-05-25T22:01:59;42.40;;;26.10;;
67640;SDS011;54434;50.096;20.082;2023-05-25T22:04:35;44.40;;;26.80;;
67640;SDS011;54434;50.096;20.082;2023-05-25T22:07:12;42.90;;;26.60;;
67640;SDS011;54434;50.096;20.082;2023-05-25T22:09:49;42.90;;;27.70;;
67640;SDS011;54434;50.096;20.082;2023-05-25T22:12:25;46.10;;;26.80;;
67640;SDS011;54434;50.096;20.082;2023-05-25T22:15:02;44.00;;;27.60;;
67640;SDS011;54434;50.096;20.082;2023-05-25T22:17:40;43.90;;;27.30;;
67640;SDS011;54434;50.096;20.082;2023-05-25T22:20:17;49.80;;;27.30;;
67640;SDS011;54434;50.096;20.082;2023-05-25T22:22:54;47.20;;;27.40;;
67640;SDS011;54434;50.096;20.082;2023-05-25T22:25:31;42.10;;;27.30;;
67640;SDS011;54434;50.096;20.082;2023-05-25T22:28:07;40.20;;;27.10;;
67640;SDS011;54434;50.096;20.082;2023-05-25T22:30:44;47.90;;;28.20;;
67640;SDS011;54434;50.096;20.082;2023-05-25T22:33:20;44.90;;;26.70;;
67640;SDS011;54434;50.096;20.082;2023-05-25T22:35:57;45.70;;;28.10;;
67640;SDS011;54434;50.096;20.082;2023-05-25T22:38:33;47.20;;;28.30;;
67640;SDS011;54434;50.096;20.082;2023-05-25T22:41:10;45.90;;;26.90;;
67640;SDS011;54434;50.096;20.082;2023-05-25T22:44:01;45.00;;;27.00;;
67640;SDS011;54434;50.096;20.082;2023-05-25T22:46:38;43.00;;;26.40;;
67640;SDS011;54434;50.096;20.082;2023-05-25T22:49:14;43.00;;;27.40;;
67640;SDS011;54434;50.096;20.082;2023-05-25T22:51:51;44.10;;;27.90;;
67640;SDS011;54434;50.096;20.082;2023-05-25T22:54:27;42.70;;;27.50;;
67640;SDS011;54434;50.096;20.082;2023-05-25T22:57:04;45.80;;;27.50;;
67640;SDS011;54434;50.096;20.082;2023-05-25T22:59:41;47.80;;;27.40;;
67640;SDS011;54434;50.096;20.082;2023-05-25T23:02:18;45.50;;;27.10;;
67640;SDS011;54434;50.096;20.082;2023-05-25T23:04:54;48.00;;;28.10;;
67640;SDS011;54434;50.096;20.082;2023-05-25T23:07:31;46.50;;;27.90;;
67640;SDS011;54434;50.096;20.082;2023-05-25T23:10:10;46.90;;;28.00;;
67640;SDS011;54434;50.096;20.082;2023-05-25T23:12:46;47.00;;;27.20;;
67640;SDS011;54434;50.096;20.082;2023-05-25T23:15:23;47.50;;;27.80;;
67640;SDS011;54434;50.096;20.082;2023-05-25T23:18:00;42.00;;;26.60;;
67640;SDS011;54434;50.096;20.082;2023-05-25T23:20:37;45.20;;;27.10;;
67640;SDS011;54434;50.096;20.082;2023-05-25T23:23:14;46.10;;;27.60;;
67640;SDS011;54434;50.096;20.082;2023-05-25T23:25:50;46.20;;;27.60;;
67640;SDS011;54434;50.096;20.082;2023-05-25T23:28:29;46.80;;;28.00;;
67640;SDS011;54434;50.096;20.082;2023-05-25T23:31:07;45.10;;;26.90;;